sensor_id;sensor_type;location;lat;lon;timestamp;P1;durP1;ratioP1;P2;durP2;ratioP2
51957;SDS011;41120;51.820;20.804;2022-09-09T00:13:07;19.43;;;11.17;;
51957;SDS011;41120;51.820;20.804;2022-09-09T00:22:18;17.33;;;11.77;;
51957;SDS011;41120;51.820;20.804;2022-09-09T00:36:04;25.07;;;13.80;;
51957;SDS011;41120;51.820;20.804;2022-09-09T00:38:49;20.33;;;13.20;;
51957;SDS011;41120;51.820;20.804;2022-09-09T00:41:38;23.70;;;14.50;;
51957;SDS011;41120;51.820;20.804;2022-09-09T00:50:06;22.27;;;15.77;;
51957;SDS011;41120;51.820;20.804;2022-09-09T00:55:21;24.10;;;14.37;;
51957;SDS011;41120;51.820;20.804;2022-09-09T00:58:18;25.50;;;14.53;;
51957;SDS011;41120;51.820;20.804;2022-09-09T01:06:49;24.37;;;14.47;;
51957;SDS011;41120;51.820;20.804;2022-09-09T01:15:31;22.67;;;14.83;;
51957;SDS011;41120;51.820;20.804;2022-09-09T01:23:51;25.00;;;16.00;;
51957;SDS011;41120;51.820;20.804;2022-09-09T01:29:38;24.33;;;15.10;;
51957;SDS011;41120;51.820;20.804;2022-09-09T01:38:43;24.30;;;16.57;;
51957;SDS011;41120;51.820;20.804;2022-09-09T01:41:21;25.20;;;16.93;;
51957;SDS011;41120;51.820;20.804;2022-09-09T01:43:48;28.00;;;17.97;;
51957;SDS011;41120;51.820;20.804;2022-09-09T01:46:17;28.37;;;17.37;;
51957;SDS011;41120;51.820;20.804;2022-09-09T01:51:28;28.27;;;18.10;;
51957;SDS011;41120;51.820;20.804;2022-09-09T01:54:08;31.87;;;19.33;;
51957;SDS011;41120;51.820;20.804;2022-09-09T02:02:26;29.20;;;19.73;;
51957;SDS011;41120;51.820;20.804;2022-09-09T02:05:10;30.83;;;21.30;;
51957;SDS011;41120;51.820;20.804;2022-09-09T02:07:47;32.63;;;20.97;;
51957;SDS011;41120;51.820;20.804;2022-09-09T02:10:30;29.93;;;20.27;;
51957;SDS011;41120;51.820;20.804;2022-09-09T02:15:59;31.83;;;22.17;;
51957;SDS011;41120;51.820;20.804;2022-09-09T02:21:46;32.47;;;22.57;;
51957;SDS011;41120;51.820;20.804;2022-09-09T02:24:14;38.10;;;23.47;;
51957;SDS011;41120;51.820;20.804;2022-09-09T02:26:57;36.93;;;23.20;;
51957;SDS011;41120;51.820;20.804;2022-09-09T02:32:21;35.33;;;24.27;;
51957;SDS011;41120;51.820;20.804;2022-09-09T02:37:52;35.27;;;22.50;;
51957;SDS011;41120;51.820;20.804;2022-09-09T02:40:23;35.73;;;23.73;;
51957;SDS011;41120;51.820;20.804;2022-09-09T02:42:50;29.83;;;21.80;;
51957;SDS011;41120;51.820;20.804;2022-09-09T02:54:34;35.83;;;24.07;;
51957;SDS011;41120;51.820;20.804;2022-09-09T02:57:15;33.22;;;22.65;;
51957;SDS011;41120;51.820;20.804;2022-09-09T03:02:36;35.13;;;23.13;;
51957;SDS011;41120;51.820;20.804;2022-09-09T03:05:02;35.97;;;23.60;;
51957;SDS011;41120;51.820;20.804;2022-09-09T03:07:36;35.40;;;23.03;;
51957;SDS011;41120;51.820;20.804;2022-09-09T03:12:35;38.08;;;23.25;;
51957;SDS011;41120;51.820;20.804;2022-09-09T03:15:03;29.77;;;20.50;;
51957;SDS011;41120;51.820;20.804;2022-09-09T03:17:38;34.83;;;22.47;;
51957;SDS011;41120;51.820;20.804;2022-09-09T03:20:12;31.57;;;22.43;;
51957;SDS011;41120;51.820;20.804;2022-09-09T03:22:44;29.10;;;21.20;;
51957;SDS011;41120;51.820;20.804;2022-09-09T03:25:15;29.83;;;20.87;;
51957;SDS011;41120;51.820;20.804;2022-09-09T03:38:41;33.33;;;22.07;;
51957;SDS011;41120;51.820;20.804;2022-09-09T03:41:26;32.13;;;20.80;;
51957;SDS011;41120;51.820;20.804;2022-09-09T03:46:43;29.80;;;21.03;;
51957;SDS011;41120;51.820;20.804;2022-09-09T03:49:14;31.20;;;21.88;;
51957;SDS011;41120;51.820;20.804;2022-09-09T03:51:42;33.60;;;21.50;;
51957;SDS011;41120;51.820;20.804;2022-09-09T03:54:14;34.77;;;22.60;;
51957;SDS011;41120;51.820;20.804;2022-09-09T04:02:03;34.93;;;20.97;;
51957;SDS011;41120;51.820;20.804;2022-09-09T04:04:38;31.47;;;21.33;;
51957;SDS011;41120;51.820;20.804;2022-09-09T04:07:23;33.70;;;22.27;;
51957;SDS011;41120;51.820;20.804;2022-09-09T04:12:46;37.30;;;23.40;;
51957;SDS011;41120;51.820;20.804;2022-09-09T04:15:15;33.07;;;22.47;;
51957;SDS011;41120;51.820;20.804;2022-09-09T04:17:43;36.17;;;23.70;;
51957;SDS011;41120;51.820;20.804;2022-09-09T04:20:22;37.03;;;23.43;;
51957;SDS011;41120;51.820;20.804;2022-09-09T04:28:19;37.20;;;22.33;;
51957;SDS011;41120;51.820;20.804;2022-09-09T04:30:51;39.67;;;23.73;;
51957;SDS011;41120;51.820;20.804;2022-09-09T04:33:26;36.77;;;23.13;;
51957;SDS011;41120;51.820;20.804;2022-09-09T04:36:01;40.00;;;24.20;;
51957;SDS011;41120;51.820;20.804;2022-09-09T04:38:35;40.53;;;24.60;;
51957;SDS011;41120;51.820;20.804;2022-09-09T04:41:07;43.33;;;26.67;;
51957;SDS011;41120;51.820;20.804;2022-09-09T04:43:39;42.45;;;26.23;;
51957;SDS011;41120;51.820;20.804;2022-09-09T04:51:55;49.93;;;27.80;;
51957;SDS011;41120;51.820;20.804;2022-09-09T04:59:57;59.58;;;29.67;;
51957;SDS011;41120;51.820;20.804;2022-09-09T05:02:23;57.83;;;29.77;;
51957;SDS011;41120;51.820;20.804;2022-09-09T05:07:24;60.63;;;29.80;;
51957;SDS011;41120;51.820;20.804;2022-09-09T05:09:56;62.73;;;30.03;;
51957;SDS011;41120;51.820;20.804;2022-09-09T05:12:21;52.97;;;28.23;;
51957;SDS011;41120;51.820;20.804;2022-09-09T05:15:01;56.43;;;27.70;;
51957;SDS011;41120;51.820;20.804;2022-09-09T05:17:35;57.33;;;28.30;;
51957;SDS011;41120;51.820;20.804;2022-09-09T05:22:59;56.23;;;27.97;;
51957;SDS011;41120;51.820;20.804;2022-09-09T05:30:28;43.47;;;23.07;;
51957;SDS011;41120;51.820;20.804;2022-09-09T05:38:12;41.63;;;23.13;;
51957;SDS011;41120;51.820;20.804;2022-09-09T05:40:46;42.47;;;23.53;;
51957;SDS011;41120;51.820;20.804;2022-09-09T05:51:36;39.30;;;21.53;;
51957;SDS011;41120;51.820;20.804;2022-09-09T05:54:05;38.13;;;21.27;;
51957;SDS011;41120;51.820;20.804;2022-09-09T05:59:35;33.13;;;20.73;;
51957;SDS011;41120;51.820;20.804;2022-09-09T06:02:07;33.77;;;20.77;;
51957;SDS011;41120;51.820;20.804;2022-09-09T06:04:35;34.63;;;20.60;;
51957;SDS011;41120;51.820;20.804;2022-09-09T06:07:03;35.30;;;19.87;;
51957;SDS011;41120;51.820;20.804;2022-09-09T06:09:37;34.83;;;18.90;;
51957;SDS011;41120;51.820;20.804;2022-09-09T06:12:04;36.43;;;19.70;;
51957;SDS011;41120;51.820;20.804;2022-09-09T06:14:35;32.70;;;18.50;;
51957;SDS011;41120;51.820;20.804;2022-09-09T06:17:04;32.42;;;19.05;;
51957;SDS011;41120;51.820;20.804;2022-09-09T06:19:32;31.30;;;17.43;;
51957;SDS011;41120;51.820;20.804;2022-09-09T06:21:59;40.77;;;19.10;;
51957;SDS011;41120;51.820;20.804;2022-09-09T06:24:26;35.93;;;19.83;;
51957;SDS011;41120;51.820;20.804;2022-09-09T06:29:53;34.63;;;19.50;;
51957;SDS011;41120;51.820;20.804;2022-09-09T06:38:03;35.07;;;18.73;;
51957;SDS011;41120;51.820;20.804;2022-09-09T06:40:36;44.93;;;21.97;;
51957;SDS011;41120;51.820;20.804;2022-09-09T06:45:52;38.90;;;19.20;;
51957;SDS011;41120;51.820;20.804;2022-09-09T06:48:20;38.67;;;20.93;;
51957;SDS011;41120;51.820;20.804;2022-09-09T06:50:47;42.40;;;20.10;;
51957;SDS011;41120;51.820;20.804;2022-09-09T06:53:28;37.27;;;19.37;;
51957;SDS011;41120;51.820;20.804;2022-09-09T06:56:01;42.50;;;21.67;;
51957;SDS011;41120;51.820;20.804;2022-09-09T06:58:36;45.03;;;21.23;;
51957;SDS011;41120;51.820;20.804;2022-09-09T07:01:16;43.00;;;21.17;;
51957;SDS011;41120;51.820;20.804;2022-09-09T07:03:50;39.67;;;20.40;;
51957;SDS011;41120;51.820;20.804;2022-09-09T07:06:20;37.10;;;19.63;;
51957;SDS011;41120;51.820;20.804;2022-09-09T07:08:51;39.77;;;19.03;;
51957;SDS011;41120;51.820;20.804;2022-09-09T07:11:40;38.43;;;19.47;;
51957;SDS011;41120;51.820;20.804;2022-09-09T07:16:55;39.23;;;17.80;;
51957;SDS011;41120;51.820;20.804;2022-09-09T07:19:22;40.00;;;18.67;;
51957;SDS011;41120;51.820;20.804;2022-09-09T07:21:49;41.90;;;19.33;;
51957;SDS011;41120;51.820;20.804;2022-09-09T07:24:17;38.10;;;18.63;;
51957;SDS011;41120;51.820;20.804;2022-09-09T07:26:43;42.53;;;20.63;;
51957;SDS011;41120;51.820;20.804;2022-09-09T07:31:51;37.33;;;19.43;;
51957;SDS011;41120;51.820;20.804;2022-09-09T07:42:55;48.43;;;20.67;;
51957;SDS011;41120;51.820;20.804;2022-09-09T07:45:22;40.23;;;19.77;;
51957;SDS011;41120;51.820;20.804;2022-09-09T07:47:56;42.57;;;21.13;;
51957;SDS011;41120;51.820;20.804;2022-09-09T07:52:52;48.17;;;22.47;;
51957;SDS011;41120;51.820;20.804;2022-09-09T07:57:55;44.47;;;18.97;;
51957;SDS011;41120;51.820;20.804;2022-09-09T08:00:22;40.03;;;19.57;;
51957;SDS011;41120;51.820;20.804;2022-09-09T08:02:49;44.37;;;19.97;;
51957;SDS011;41120;51.820;20.804;2022-09-09T08:05:21;34.03;;;18.20;;
51957;SDS011;41120;51.820;20.804;2022-09-09T08:07:52;48.63;;;19.13;;
51957;SDS011;41120;51.820;20.804;2022-09-09T08:13:30;43.03;;;18.53;;
51957;SDS011;41120;51.820;20.804;2022-09-09T08:19:05;40.60;;;18.43;;
51957;SDS011;41120;51.820;20.804;2022-09-09T08:24:48;48.73;;;19.20;;
51957;SDS011;41120;51.820;20.804;2022-09-09T08:27:23;37.80;;;18.53;;
51957;SDS011;41120;51.820;20.804;2022-09-09T08:32:53;41.07;;;17.60;;
51957;SDS011;41120;51.820;20.804;2022-09-09T08:38:13;45.67;;;18.70;;
51957;SDS011;41120;51.820;20.804;2022-09-09T08:43:16;46.67;;;20.20;;
51957;SDS011;41120;51.820;20.804;2022-09-09T08:52:12;41.13;;;19.20;;
51957;SDS011;41120;51.820;20.804;2022-09-09T08:57:53;49.97;;;20.90;;
51957;SDS011;41120;51.820;20.804;2022-09-09T09:00:26;45.37;;;20.13;;
51957;SDS011;41120;51.820;20.804;2022-09-09T09:03:25;48.17;;;20.70;;
51957;SDS011;41120;51.820;20.804;2022-09-09T09:11:39;43.17;;;19.90;;
51957;SDS011;41120;51.820;20.804;2022-09-09T09:17:14;47.07;;;20.97;;
51957;SDS011;41120;51.820;20.804;2022-09-09T09:19:51;49.47;;;21.43;;
51957;SDS011;41120;51.820;20.804;2022-09-09T09:25:27;55.03;;;21.23;;
51957;SDS011;41120;51.820;20.804;2022-09-09T09:28:22;44.47;;;20.37;;
51957;SDS011;41120;51.820;20.804;2022-09-09T09:33:50;49.90;;;21.30;;
51957;SDS011;41120;51.820;20.804;2022-09-09T09:45:06;46.33;;;21.43;;
51957;SDS011;41120;51.820;20.804;2022-09-09T09:48:05;55.03;;;23.33;;
51957;SDS011;41120;51.820;20.804;2022-09-09T09:50:35;56.37;;;23.90;;
51957;SDS011;41120;51.820;20.804;2022-09-09T09:58:55;56.40;;;24.20;;
51957;SDS011;41120;51.820;20.804;2022-09-09T10:01:28;60.57;;;24.63;;
51957;SDS011;41120;51.820;20.804;2022-09-09T10:03:59;55.93;;;23.73;;
51957;SDS011;41120;51.820;20.804;2022-09-09T10:06:33;56.27;;;23.93;;
51957;SDS011;41120;51.820;20.804;2022-09-09T10:14:23;58.67;;;26.83;;
51957;SDS011;41120;51.820;20.804;2022-09-09T10:19:36;57.40;;;25.60;;
51957;SDS011;41120;51.820;20.804;2022-09-09T10:39:06;53.05;;;24.52;;
51957;SDS011;41120;51.820;20.804;2022-09-09T10:44:36;53.03;;;24.37;;
51957;SDS011;41120;51.820;20.804;2022-09-09T10:52:42;51.50;;;24.03;;
51957;SDS011;41120;51.820;20.804;2022-09-09T10:55:39;50.70;;;23.80;;
51957;SDS011;41120;51.820;20.804;2022-09-09T11:16:25;43.97;;;23.45;;
51957;SDS011;41120;51.820;20.804;2022-09-09T11:25:18;50.70;;;23.50;;
51957;SDS011;41120;51.820;20.804;2022-09-09T11:34:12;42.10;;;23.27;;
51957;SDS011;41120;51.820;20.804;2022-09-09T11:46:10;37.77;;;21.57;;
51957;SDS011;41120;51.820;20.804;2022-09-09T11:51:43;40.13;;;21.57;;
51957;SDS011;41120;51.820;20.804;2022-09-09T12:00:27;45.25;;;22.75;;
51957;SDS011;41120;51.820;20.804;2022-09-09T12:09:17;43.72;;;22.80;;
51957;SDS011;41120;51.820;20.804;2022-09-09T12:35:43;37.40;;;22.50;;
51957;SDS011;41120;51.820;20.804;2022-09-09T12:41:26;37.00;;;20.87;;
51957;SDS011;41120;51.820;20.804;2022-09-09T12:44:10;34.10;;;19.80;;
51957;SDS011;41120;51.820;20.804;2022-09-09T12:52:05;43.07;;;24.40;;
51957;SDS011;41120;51.820;20.804;2022-09-09T12:54:36;36.00;;;22.10;;
51957;SDS011;41120;51.820;20.804;2022-09-09T12:57:04;39.63;;;22.50;;
51957;SDS011;41120;51.820;20.804;2022-09-09T12:59:43;40.27;;;24.03;;
51957;SDS011;41120;51.820;20.804;2022-09-09T13:02:18;37.80;;;21.70;;
51957;SDS011;41120;51.820;20.804;2022-09-09T13:04:49;32.23;;;21.67;;
51957;SDS011;41120;51.820;20.804;2022-09-09T13:07:17;33.20;;;18.57;;
51957;SDS011;41120;51.820;20.804;2022-09-09T13:09:44;29.10;;;18.23;;
51957;SDS011;41120;51.820;20.804;2022-09-09T13:15:05;34.40;;;20.03;;
51957;SDS011;41120;51.820;20.804;2022-09-09T13:17:55;34.93;;;21.53;;
51957;SDS011;41120;51.820;20.804;2022-09-09T13:20:27;34.13;;;20.23;;
51957;SDS011;41120;51.820;20.804;2022-09-09T13:22:56;35.03;;;21.17;;
51957;SDS011;41120;51.820;20.804;2022-09-09T13:25:30;37.53;;;22.87;;
51957;SDS011;41120;51.820;20.804;2022-09-09T13:28:04;37.10;;;22.53;;
51957;SDS011;41120;51.820;20.804;2022-09-09T13:30:44;33.63;;;20.87;;
51957;SDS011;41120;51.820;20.804;2022-09-09T13:33:36;37.03;;;21.00;;
51957;SDS011;41120;51.820;20.804;2022-09-09T13:36:08;36.27;;;21.07;;
51957;SDS011;41120;51.820;20.804;2022-09-09T13:49:58;30.10;;;18.40;;
51957;SDS011;41120;51.820;20.804;2022-09-09T13:52:33;28.43;;;18.03;;
51957;SDS011;41120;51.820;20.804;2022-09-09T13:58:14;35.83;;;19.83;;
51957;SDS011;41120;51.820;20.804;2022-09-09T14:03:15;30.47;;;17.80;;
51957;SDS011;41120;51.820;20.804;2022-09-09T14:05:45;31.03;;;19.10;;
51957;SDS011;41120;51.820;20.804;2022-09-09T14:16:13;28.57;;;17.63;;
51957;SDS011;41120;51.820;20.804;2022-09-09T14:21:36;25.10;;;16.60;;
51957;SDS011;41120;51.820;20.804;2022-09-09T14:27:01;101.53;;;30.80;;
51957;SDS011;41120;51.820;20.804;2022-09-09T14:29:35;25.97;;;17.37;;
51957;SDS011;41120;51.820;20.804;2022-09-09T14:32:02;22.40;;;14.90;;
51957;SDS011;41120;51.820;20.804;2022-09-09T14:34:41;28.00;;;17.10;;
51957;SDS011;41120;51.820;20.804;2022-09-09T14:39:57;25.77;;;17.83;;
51957;SDS011;41120;51.820;20.804;2022-09-09T14:42:34;24.10;;;16.63;;
51957;SDS011;41120;51.820;20.804;2022-09-09T14:45:07;27.13;;;19.73;;
51957;SDS011;41120;51.820;20.804;2022-09-09T14:47:36;28.63;;;18.73;;
51957;SDS011;41120;51.820;20.804;2022-09-09T14:50:05;32.57;;;20.90;;
51957;SDS011;41120;51.820;20.804;2022-09-09T14:52:47;31.73;;;21.47;;
51957;SDS011;41120;51.820;20.804;2022-09-09T14:55:19;32.53;;;21.48;;
51957;SDS011;41120;51.820;20.804;2022-09-09T14:57:47;40.53;;;24.10;;
51957;SDS011;41120;51.820;20.804;2022-09-09T15:00:27;45.30;;;24.23;;
51957;SDS011;41120;51.820;20.804;2022-09-09T15:02:53;40.60;;;25.83;;
51957;SDS011;41120;51.820;20.804;2022-09-09T15:05:31;45.57;;;27.17;;
51957;SDS011;41120;51.820;20.804;2022-09-09T15:08:00;46.17;;;28.23;;
51957;SDS011;41120;51.820;20.804;2022-09-09T15:10:27;43.90;;;26.07;;
51957;SDS011;41120;51.820;20.804;2022-09-09T15:12:53;47.37;;;26.43;;
51957;SDS011;41120;51.820;20.804;2022-09-09T15:15:20;48.40;;;27.57;;
51957;SDS011;41120;51.820;20.804;2022-09-09T15:17:46;45.53;;;27.10;;
51957;SDS011;41120;51.820;20.804;2022-09-09T15:23:05;53.67;;;29.87;;
51957;SDS011;41120;51.820;20.804;2022-09-09T15:25:36;53.97;;;31.65;;
51957;SDS011;41120;51.820;20.804;2022-09-09T15:34:01;49.87;;;28.67;;
51957;SDS011;41120;51.820;20.804;2022-09-09T15:36:37;56.00;;;31.60;;
51957;SDS011;41120;51.820;20.804;2022-09-09T15:39:13;47.67;;;29.47;;
51957;SDS011;41120;51.820;20.804;2022-09-09T15:41:55;57.77;;;30.90;;
51957;SDS011;41120;51.820;20.804;2022-09-09T15:44:38;57.00;;;31.87;;
51957;SDS011;41120;51.820;20.804;2022-09-09T15:47:06;60.67;;;31.63;;
51957;SDS011;41120;51.820;20.804;2022-09-09T15:49:41;50.07;;;30.17;;
51957;SDS011;41120;51.820;20.804;2022-09-09T15:52:08;61.23;;;32.47;;
51957;SDS011;41120;51.820;20.804;2022-09-09T15:54:44;55.30;;;31.17;;
51957;SDS011;41120;51.820;20.804;2022-09-09T16:00:04;53.85;;;29.80;;
51957;SDS011;41120;51.820;20.804;2022-09-09T16:05:07;56.77;;;30.97;;
51957;SDS011;41120;51.820;20.804;2022-09-09T16:10:31;59.20;;;32.00;;
51957;SDS011;41120;51.820;20.804;2022-09-09T16:13:03;62.83;;;31.70;;
51957;SDS011;41120;51.820;20.804;2022-09-09T16:15:37;60.97;;;33.50;;
51957;SDS011;41120;51.820;20.804;2022-09-09T16:18:09;56.80;;;31.87;;
51957;SDS011;41120;51.820;20.804;2022-09-09T16:23:29;62.45;;;32.70;;
51957;SDS011;41120;51.820;20.804;2022-09-09T16:26:02;69.87;;;33.70;;
51957;SDS011;41120;51.820;20.804;2022-09-09T16:28:41;75.10;;;33.50;;
51957;SDS011;41120;51.820;20.804;2022-09-09T16:34:24;66.53;;;33.20;;
51957;SDS011;41120;51.820;20.804;2022-09-09T16:43:05;69.50;;;34.77;;
51957;SDS011;41120;51.820;20.804;2022-09-09T16:45:34;79.30;;;38.67;;
51957;SDS011;41120;51.820;20.804;2022-09-09T16:48:07;83.00;;;36.93;;
51957;SDS011;41120;51.820;20.804;2022-09-09T16:50:33;86.43;;;40.20;;
51957;SDS011;41120;51.820;20.804;2022-09-09T16:52:59;91.23;;;41.17;;
51957;SDS011;41120;51.820;20.804;2022-09-09T16:55:37;102.13;;;39.30;;
51957;SDS011;41120;51.820;20.804;2022-09-09T16:58:05;103.10;;;41.27;;
51957;SDS011;41120;51.820;20.804;2022-09-09T17:00:31;110.43;;;43.90;;
51957;SDS011;41120;51.820;20.804;2022-09-09T17:02:56;105.97;;;43.20;;
51957;SDS011;41120;51.820;20.804;2022-09-09T17:05:25;110.37;;;41.13;;
51957;SDS011;41120;51.820;20.804;2022-09-09T17:10:47;114.77;;;43.47;;
51957;SDS011;41120;51.820;20.804;2022-09-09T17:16:14;106.13;;;39.87;;
51957;SDS011;41120;51.820;20.804;2022-09-09T17:18:51;110.47;;;41.97;;
51957;SDS011;41120;51.820;20.804;2022-09-09T17:21:27;115.23;;;41.13;;
51957;SDS011;41120;51.820;20.804;2022-09-09T17:24:13;112.07;;;43.10;;
51957;SDS011;41120;51.820;20.804;2022-09-09T17:26:41;119.77;;;43.27;;
51957;SDS011;41120;51.820;20.804;2022-09-09T17:29:09;110.40;;;40.87;;
51957;SDS011;41120;51.820;20.804;2022-09-09T17:31:49;108.80;;;40.13;;
51957;SDS011;41120;51.820;20.804;2022-09-09T17:34:28;102.43;;;37.87;;
51957;SDS011;41120;51.820;20.804;2022-09-09T17:37:03;108.90;;;40.57;;
51957;SDS011;41120;51.820;20.804;2022-09-09T17:39:36;114.53;;;40.97;;
51957;SDS011;41120;51.820;20.804;2022-09-09T17:42:04;98.63;;;39.70;;
51957;SDS011;41120;51.820;20.804;2022-09-09T17:47:41;102.85;;;40.20;;
51957;SDS011;41120;51.820;20.804;2022-09-09T17:50:10;104.13;;;41.43;;
51957;SDS011;41120;51.820;20.804;2022-09-09T17:58:09;96.83;;;42.23;;
51957;SDS011;41120;51.820;20.804;2022-09-09T18:00:42;105.07;;;43.87;;
51957;SDS011;41120;51.820;20.804;2022-09-09T18:03:10;108.30;;;42.87;;
51957;SDS011;41120;51.820;20.804;2022-09-09T18:05:49;100.13;;;43.37;;
51957;SDS011;41120;51.820;20.804;2022-09-09T18:08:29;106.53;;;44.07;;
51957;SDS011;41120;51.820;20.804;2022-09-09T18:11:10;103.07;;;41.37;;
51957;SDS011;41120;51.820;20.804;2022-09-09T18:13:39;92.37;;;38.77;;
51957;SDS011;41120;51.820;20.804;2022-09-09T18:16:21;110.37;;;44.57;;
51957;SDS011;41120;51.820;20.804;2022-09-09T18:18:55;92.40;;;40.23;;
51957;SDS011;41120;51.820;20.804;2022-09-09T18:21:28;76.17;;;37.77;;
51957;SDS011;41120;51.820;20.804;2022-09-09T18:29:37;73.60;;;35.47;;
51957;SDS011;41120;51.820;20.804;2022-09-09T18:32:06;81.13;;;37.40;;
51957;SDS011;41120;51.820;20.804;2022-09-09T18:34:35;74.50;;;35.03;;
51957;SDS011;41120;51.820;20.804;2022-09-09T18:37:00;70.53;;;33.33;;
51957;SDS011;41120;51.820;20.804;2022-09-09T18:39:30;69.73;;;32.13;;
51957;SDS011;41120;51.820;20.804;2022-09-09T18:42:06;72.90;;;33.40;;
51957;SDS011;41120;51.820;20.804;2022-09-09T18:44:34;75.87;;;34.53;;
51957;SDS011;41120;51.820;20.804;2022-09-09T18:47:08;65.17;;;31.63;;
51957;SDS011;41120;51.820;20.804;2022-09-09T18:49:37;68.17;;;32.43;;
51957;SDS011;41120;51.820;20.804;2022-09-09T18:52:06;65.27;;;32.13;;
51957;SDS011;41120;51.820;20.804;2022-09-09T18:54:40;66.40;;;32.43;;
51957;SDS011;41120;51.820;20.804;2022-09-09T18:57:14;64.40;;;32.17;;
51957;SDS011;41120;51.820;20.804;2022-09-09T18:59:41;58.97;;;31.93;;
51957;SDS011;41120;51.820;20.804;2022-09-09T19:02:13;48.87;;;27.27;;
51957;SDS011;41120;51.820;20.804;2022-09-09T19:04:40;52.13;;;28.05;;
51957;SDS011;41120;51.820;20.804;2022-09-09T19:07:11;46.53;;;25.17;;
51957;SDS011;41120;51.820;20.804;2022-09-09T19:09:42;48.10;;;27.17;;
51957;SDS011;41120;51.820;20.804;2022-09-09T19:17:48;61.37;;;30.60;;
51957;SDS011;41120;51.820;20.804;2022-09-09T19:20:16;59.10;;;29.77;;
51957;SDS011;41120;51.820;20.804;2022-09-09T19:22:46;63.50;;;30.30;;
51957;SDS011;41120;51.820;20.804;2022-09-09T19:25:14;57.40;;;29.87;;
51957;SDS011;41120;51.820;20.804;2022-09-09T19:27:42;65.17;;;31.40;;
51957;SDS011;41120;51.820;20.804;2022-09-09T19:30:19;69.43;;;32.40;;
51957;SDS011;41120;51.820;20.804;2022-09-09T19:32:51;74.47;;;34.97;;
51957;SDS011;41120;51.820;20.804;2022-09-09T19:35:23;75.70;;;37.10;;
51957;SDS011;41120;51.820;20.804;2022-09-09T19:37:50;76.63;;;36.23;;
51957;SDS011;41120;51.820;20.804;2022-09-09T19:40:17;78.67;;;35.93;;
51957;SDS011;41120;51.820;20.804;2022-09-09T19:42:51;86.55;;;37.10;;
51957;SDS011;41120;51.820;20.804;2022-09-09T19:45:18;77.93;;;37.43;;
51957;SDS011;41120;51.820;20.804;2022-09-09T19:47:52;87.13;;;38.63;;
51957;SDS011;41120;51.820;20.804;2022-09-09T19:50:30;84.60;;;39.10;;
51957;SDS011;41120;51.820;20.804;2022-09-09T19:53:11;85.70;;;39.00;;
51957;SDS011;41120;51.820;20.804;2022-09-09T19:55:52;77.23;;;34.83;;
51957;SDS011;41120;51.820;20.804;2022-09-09T20:01:13;87.90;;;41.27;;
51957;SDS011;41120;51.820;20.804;2022-09-09T20:03:39;91.73;;;38.03;;
51957;SDS011;41120;51.820;20.804;2022-09-09T20:06:09;89.07;;;38.27;;
51957;SDS011;41120;51.820;20.804;2022-09-09T20:08:37;101.03;;;41.20;;
51957;SDS011;41120;51.820;20.804;2022-09-09T20:11:10;104.10;;;41.87;;
51957;SDS011;41120;51.820;20.804;2022-09-09T20:13:40;103.93;;;40.90;;
51957;SDS011;41120;51.820;20.804;2022-09-09T20:16:13;87.93;;;38.97;;
51957;SDS011;41120;51.820;20.804;2022-09-09T20:18:45;81.67;;;34.27;;
51957;SDS011;41120;51.820;20.804;2022-09-09T20:21:18;77.60;;;32.57;;
51957;SDS011;41120;51.820;20.804;2022-09-09T20:23:52;81.73;;;33.77;;
51957;SDS011;41120;51.820;20.804;2022-09-09T20:29:13;82.60;;;36.87;;
51957;SDS011;41120;51.820;20.804;2022-09-09T20:31:52;82.37;;;36.43;;
51957;SDS011;41120;51.820;20.804;2022-09-09T20:34:24;89.17;;;37.77;;
51957;SDS011;41120;51.820;20.804;2022-09-09T20:36:52;93.47;;;38.63;;
51957;SDS011;41120;51.820;20.804;2022-09-09T20:39:20;87.20;;;37.90;;
51957;SDS011;41120;51.820;20.804;2022-09-09T20:41:49;78.10;;;36.90;;
51957;SDS011;41120;51.820;20.804;2022-09-09T20:44:25;89.27;;;38.23;;
51957;SDS011;41120;51.820;20.804;2022-09-09T20:46:53;80.37;;;35.73;;
51957;SDS011;41120;51.820;20.804;2022-09-09T20:52:16;89.87;;;39.70;;
51957;SDS011;41120;51.820;20.804;2022-09-09T20:54:45;89.53;;;39.23;;
51957;SDS011;41120;51.820;20.804;2022-09-09T20:57:23;88.70;;;40.50;;
51957;SDS011;41120;51.820;20.804;2022-09-09T20:59:56;86.53;;;36.93;;
51957;SDS011;41120;51.820;20.804;2022-09-09T21:02:22;82.43;;;36.27;;
51957;SDS011;41120;51.820;20.804;2022-09-09T21:04:48;69.17;;;33.60;;
51957;SDS011;41120;51.820;20.804;2022-09-09T21:07:16;49.70;;;27.00;;
51957;SDS011;41120;51.820;20.804;2022-09-09T21:09:48;50.63;;;27.70;;
51957;SDS011;41120;51.820;20.804;2022-09-09T21:12:24;52.40;;;28.27;;
51957;SDS011;41120;51.820;20.804;2022-09-09T21:14:52;51.30;;;29.63;;
51957;SDS011;41120;51.820;20.804;2022-09-09T21:17:29;52.43;;;28.87;;
51957;SDS011;41120;51.820;20.804;2022-09-09T21:22:43;49.83;;;27.63;;
51957;SDS011;41120;51.820;20.804;2022-09-09T21:27:59;56.60;;;29.63;;
51957;SDS011;41120;51.820;20.804;2022-09-09T21:30:28;57.77;;;32.30;;
51957;SDS011;41120;51.820;20.804;2022-09-09T21:32:53;57.17;;;32.83;;
51957;SDS011;41120;51.820;20.804;2022-09-09T21:35:35;64.17;;;33.17;;
51957;SDS011;41120;51.820;20.804;2022-09-09T21:38:20;57.80;;;33.30;;
51957;SDS011;41120;51.820;20.804;2022-09-09T21:43:23;62.00;;;30.87;;
51957;SDS011;41120;51.820;20.804;2022-09-09T21:48:46;61.37;;;34.00;;
51957;SDS011;41120;51.820;20.804;2022-09-09T21:51:30;70.73;;;35.77;;
51957;SDS011;41120;51.820;20.804;2022-09-09T21:54:03;75.33;;;36.40;;
51957;SDS011;41120;51.820;20.804;2022-09-09T21:56:40;70.87;;;37.93;;
51957;SDS011;41120;51.820;20.804;2022-09-09T22:02:17;79.93;;;37.80;;
51957;SDS011;41120;51.820;20.804;2022-09-09T22:04:48;77.73;;;36.17;;
51957;SDS011;41120;51.820;20.804;2022-09-09T22:07:23;80.03;;;36.07;;
51957;SDS011;41120;51.820;20.804;2022-09-09T22:09:55;82.17;;;37.83;;
51957;SDS011;41120;51.820;20.804;2022-09-09T22:12:27;89.25;;;36.80;;
51957;SDS011;41120;51.820;20.804;2022-09-09T22:14:53;86.82;;;38.10;;
51957;SDS011;41120;51.820;20.804;2022-09-09T22:20:43;86.57;;;38.03;;
51957;SDS011;41120;51.820;20.804;2022-09-09T22:23:12;85.47;;;37.07;;
51957;SDS011;41120;51.820;20.804;2022-09-09T22:25:47;91.90;;;38.33;;
51957;SDS011;41120;51.820;20.804;2022-09-09T22:30:49;94.90;;;39.97;;
51957;SDS011;41120;51.820;20.804;2022-09-09T22:33:16;80.90;;;36.00;;
51957;SDS011;41120;51.820;20.804;2022-09-09T22:35:58;80.17;;;35.60;;
51957;SDS011;41120;51.820;20.804;2022-09-09T22:41:28;79.53;;;35.37;;
51957;SDS011;41120;51.820;20.804;2022-09-09T22:49:40;86.23;;;35.17;;
51957;SDS011;41120;51.820;20.804;2022-09-09T22:52:12;87.80;;;38.03;;
51957;SDS011;41120;51.820;20.804;2022-09-09T22:54:45;87.55;;;37.25;;
51957;SDS011;41120;51.820;20.804;2022-09-09T23:00:08;95.13;;;39.07;;
51957;SDS011;41120;51.820;20.804;2022-09-09T23:02:45;110.43;;;41.73;;
51957;SDS011;41120;51.820;20.804;2022-09-09T23:07:54;114.83;;;41.37;;